createdAt,value
2022-10-05T00:01:32.899Z,78.56
2022-10-05T00:04:28.251Z,78.84
2022-10-05T00:07:16.661Z,79.19
2022-10-05T00:10:00.231Z,78.89
2022-10-05T00:12:32.157Z,78.50
2022-10-05T00:15:12.721Z,79.06
2022-10-05T00:17:44.790Z,79.11
2022-10-05T00:20:24.795Z,78.83
2022-10-05T00:23:01.404Z,79.50
2022-10-05T00:25:33.374Z,79.75
2022-10-05T00:28:26.891Z,79.61
2022-10-05T00:31:00.237Z,79.71
2022-10-05T00:33:32.261Z,79.79
2022-10-05T00:36:07.722Z,79.69
2022-10-05T00:38:40.280Z,80.06
2022-10-05T00:41:18.321Z,79.64
2022-10-05T00:44:24.024Z,79.23
2022-10-05T00:47:22.978Z,79.12
2022-10-05T00:50:32.979Z,79.33
2022-10-05T00:53:43.418Z,79.21
2022-10-05T00:57:11.242Z,79.34
2022-10-05T00:59:57.966Z,79.82
2022-10-05T01:02:52.593Z,79.67
2022-10-05T01:06:01.450Z,79.96
2022-10-05T01:08:37.444Z,79.83
2022-10-05T01:11:27.153Z,79.71
2022-10-05T01:14:07.863Z,79.88
2022-10-05T01:17:13.720Z,80.22
2022-10-05T01:20:07.293Z,79.47
2022-10-05T01:23:00.904Z,79.52
2022-10-05T01:26:01.971Z,79.08
2022-10-05T01:28:49.261Z,79.11
2022-10-05T01:31:53.549Z,78.95
2022-10-05T01:35:01.319Z,79.60
2022-10-05T01:38:10.958Z,79.27
2022-10-05T01:40:51.883Z,79.95
2022-10-05T01:43:53.181Z,79.54
2022-10-05T01:46:54.264Z,79.40
2022-10-05T01:49:47.935Z,79.25
2022-10-05T01:52:28.175Z,79.49
2022-10-05T01:55:33.093Z,79.58
2022-10-05T01:58:33.038Z,80.00
2022-10-05T02:01:39.066Z,79.96
2022-10-05T02:05:03.316Z,80.20
2022-10-05T02:07:54.833Z,81.08
2022-10-05T02:10:35.609Z,80.92
2022-10-05T02:13:36.640Z,81.04
2022-10-05T02:16:22.474Z,80.80
2022-10-05T02:19:03.987Z,81.36
2022-10-05T02:21:37.202Z,81.46
2022-10-05T02:24:15.843Z,81.82
2022-10-05T02:26:50.322Z,82.08
2022-10-05T02:29:27.157Z,82.44
2022-10-05T02:32:06.787Z,81.91
2022-10-05T02:34:41.667Z,81.29
2022-10-05T02:37:56.009Z,81.57
2022-10-05T02:40:59.423Z,82.35
2022-10-05T02:44:08.215Z,82.57
2022-10-05T02:46:58.383Z,82.28
2022-10-05T02:49:45.716Z,81.99
2022-10-05T02:52:31.743Z,82.41
2022-10-05T02:55:27.742Z,82.62
2022-10-05T02:58:13.581Z,82.97
2022-10-05T03:01:08.530Z,82.23
2022-10-05T03:03:48.690Z,82.57
2022-10-05T03:06:36.681Z,82.72
2022-10-05T03:09:09.997Z,83.38
2022-10-05T03:12:16.273Z,83.39
2022-10-05T03:15:43.867Z,83.71
2022-10-05T03:18:43.697Z,83.38
2022-10-05T03:21:40.665Z,83.02
2022-10-05T03:24:53.815Z,83.41
2022-10-05T03:27:50.501Z,83.44
2022-10-05T03:30:26.093Z,82.74
2022-10-05T03:33:19.841Z,83.07
2022-10-05T03:36:15.285Z,83.12
2022-10-05T03:38:50.799Z,83.23
2022-10-05T03:41:48.602Z,82.77
2022-10-05T03:44:32.233Z,82.31
2022-10-05T03:47:49.666Z,82.87
2022-10-05T03:50:46.448Z,83.38
2022-10-05T03:53:26.269Z,83.41
2022-10-05T03:56:20.525Z,83.41
2022-10-05T03:59:03.417Z,83.41
2022-10-05T04:02:01.735Z,83.89
2022-10-05T04:04:47.297Z,84.55
2022-10-05T04:07:54.952Z,84.25
2022-10-05T04:10:32.959Z,84.19
2022-10-05T04:13:27.417Z,84.24
2022-10-05T04:16:16.345Z,84.56
2022-10-05T04:19:15.083Z,84.50
2022-10-05T04:22:18.976Z,85.03
2022-10-05T04:25:18.225Z,85.42
2022-10-05T04:28:16.709Z,85.89
2022-10-05T04:30:50.793Z,85.86
2022-10-05T04:33:23.107Z,85.88
2022-10-05T04:36:34.675Z,85.98
2022-10-05T04:39:41.306Z,86.16
2022-10-05T04:42:18.923Z,86.76
2022-10-05T04:45:04.829Z,87.23
2022-10-05T04:48:25.232Z,87.45
2022-10-05T04:51:51.041Z,87.29
2022-10-05T04:54:58.767Z,88.25
2022-10-05T04:58:02.449Z,88.56
2022-10-05T05:00:58.519Z,88.91
2022-10-05T05:03:43.526Z,88.72
2022-10-05T05:06:37.140Z,88.83
2022-10-05T05:09:49.152Z,89.23
2022-10-05T05:13:04.763Z,89.17
2022-10-05T05:16:04.954Z,88.87
2022-10-05T05:19:23.796Z,89.31
2022-10-05T05:22:15.809Z,89.98
2022-10-05T05:25:17.299Z,89.64
2022-10-05T05:28:01.522Z,89.21
2022-10-05T05:30:47.105Z,89.84
2022-10-05T05:33:35.979Z,90.18
2022-10-05T05:36:55.021Z,89.81
2022-10-05T05:39:34.903Z,89.91
2022-10-05T05:42:46.894Z,90.39
2022-10-05T05:45:54.290Z,90.02
2022-10-05T05:48:38.252Z,90.10
2022-10-05T05:51:34.946Z,90.23
2022-10-05T05:54:15.647Z,90.27
2022-10-05T05:56:56.400Z,90.02
2022-10-05T05:59:49.765Z,90.04
2022-10-05T06:02:34.284Z,89.37
2022-10-05T06:05:31.766Z,88.91
2022-10-05T06:08:20.434Z,89.19
2022-10-05T06:11:15.301Z,88.81
2022-10-05T06:13:48.140Z,88.45
2022-10-05T06:16:46.522Z,88.71
2022-10-05T06:19:22.612Z,88.67
2022-10-05T06:22:09.128Z,88.92
2022-10-05T06:24:58.696Z,89.26
2022-10-05T06:28:00.406Z,89.08
2022-10-05T06:30:49.062Z,88.56
2022-10-05T06:33:52.759Z,88.68
2022-10-05T06:36:49.966Z,87.19
2022-10-05T06:39:43.295Z,87.43
2022-10-05T06:42:50.342Z,87.81
2022-10-05T06:45:46.353Z,87.11
2022-10-05T06:48:32.688Z,86.27
2022-10-05T06:51:20.288Z,86.94
2022-10-05T06:54:04.700Z,87.02
2022-10-05T06:56:57.470Z,87.11
2022-10-05T07:00:05.637Z,86.27
2022-10-05T07:02:55.943Z,86.47
2022-10-05T07:06:02.523Z,86.35
2022-10-05T07:08:58.397Z,86.41
2022-10-05T07:12:15.320Z,85.93
2022-10-05T07:15:03.672Z,85.32
2022-10-05T07:18:13.274Z,85.89
2022-10-05T07:21:28.868Z,86.01
2022-10-05T07:24:34.844Z,85.63
2022-10-05T07:27:18.053Z,85.96
2022-10-05T07:30:11.615Z,86.05
2022-10-05T07:33:12.566Z,85.64
2022-10-05T07:36:21.057Z,85.49
2022-10-05T07:39:13.749Z,85.53
2022-10-05T07:41:54.265Z,86.07
2022-10-05T07:45:10.707Z,86.98
2022-10-05T07:47:57.931Z,86.50
2022-10-05T07:50:47.211Z,86.64
2022-10-05T07:53:28.785Z,86.46
2022-10-05T07:56:23.832Z,86.05
2022-10-05T07:59:03.100Z,85.13
2022-10-05T08:01:47.427Z,84.85
2022-10-05T08:04:32.071Z,83.58
2022-10-05T08:07:07.845Z,83.69
2022-10-05T08:09:49.687Z,83.36
2022-10-05T08:12:41.802Z,82.37
2022-10-05T08:15:25.883Z,82.62
2022-10-05T08:18:26.507Z,82.28
2022-10-05T08:20:59.249Z,81.60
2022-10-05T08:23:38.714Z,79.46
2022-10-05T08:26:38.291Z,79.94
2022-10-05T08:29:32.241Z,81.03
2022-10-05T08:32:38.144Z,81.82
2022-10-05T08:35:35.219Z,81.51
2022-10-05T08:38:16.806Z,80.28
2022-10-05T08:41:35.163Z,79.45
2022-10-05T08:44:36.467Z,79.44
2022-10-05T08:47:30.149Z,79.00
2022-10-05T08:50:34.779Z,78.19
2022-10-05T08:53:40.687Z,79.23
2022-10-05T08:56:52.259Z,78.24
2022-10-05T08:59:49.121Z,78.97
2022-10-05T09:02:47.325Z,79.15
2022-10-05T09:06:06.003Z,79.32
2022-10-05T09:09:14.503Z,79.78
2022-10-05T09:12:42.057Z,78.99
2022-10-05T09:16:00.418Z,77.83
2022-10-05T09:19:02.501Z,77.61
2022-10-05T09:21:59.044Z,77.80
2022-10-05T09:24:54.276Z,77.01
2022-10-05T09:27:39.756Z,77.49
2022-10-05T09:30:23.450Z,76.88
2022-10-05T09:33:26.559Z,77.79
2022-10-05T09:36:54.904Z,76.54
2022-10-05T09:39:37.007Z,75.75
2022-10-05T09:42:44.668Z,75.98
2022-10-05T09:45:35.819Z,76.07
2022-10-05T09:49:12.979Z,75.58
2022-10-05T09:51:54.060Z,75.17
2022-10-05T09:55:01.745Z,75.78
2022-10-05T09:57:53.363Z,74.50
2022-10-05T10:01:03.607Z,74.25
2022-10-05T10:04:22.340Z,74.17
2022-10-05T10:07:13.324Z,74.97
2022-10-05T10:10:19.404Z,75.41
2022-10-05T10:13:45.793Z,75.05
2022-10-05T10:16:46.339Z,74.84
2022-10-05T10:19:51.896Z,74.70
2022-10-05T10:22:51.130Z,74.66
2022-10-05T10:26:04.394Z,74.70
2022-10-05T10:29:16.203Z,73.52
2022-10-05T10:32:00.473Z,72.95
2022-10-05T10:35:09.278Z,71.67
2022-10-05T10:37:53.139Z,69.86
2022-10-05T10:41:10.652Z,70.48
2022-10-05T10:44:24.049Z,68.57
2022-10-05T10:47:28.168Z,67.03
2022-10-05T10:50:05.080Z,67.03
2022-10-05T10:53:10.244Z,67.02
2022-10-05T10:56:18.891Z,67.70
2022-10-05T10:59:43.605Z,67.96
2022-10-05T11:02:37.456Z,68.60
2022-10-05T11:06:17.406Z,68.08
2022-10-05T11:09:52.492Z,66.82
2022-10-05T11:13:09.626Z,66.05
2022-10-05T11:16:00.873Z,66.94
2022-10-05T11:19:11.026Z,65.70
2022-10-05T11:22:23.357Z,64.37
2022-10-05T11:25:34.877Z,66.04
2022-10-05T11:28:40.684Z,65.74
2022-10-05T11:32:06.723Z,66.22
2022-10-05T11:35:17.898Z,64.51
2022-10-05T11:38:12.314Z,63.90
2022-10-05T11:41:16.695Z,63.53
2022-10-05T11:44:35.604Z,63.41
2022-10-05T11:47:28.438Z,62.31
2022-10-05T11:50:19.997Z,62.40
2022-10-05T11:53:00.488Z,61.69
2022-10-05T11:56:09.436Z,61.03
2022-10-05T11:59:08.816Z,61.65
2022-10-05T12:01:59.107Z,61.03
2022-10-05T12:04:41.343Z,61.19
2022-10-05T12:07:40.180Z,61.89
2022-10-05T12:10:43.985Z,62.59
2022-10-05T12:13:39.861Z,62.46
2022-10-05T12:16:17.763Z,60.98
2022-10-05T12:19:18.283Z,60.51
2022-10-05T12:22:15.479Z,62.04
2022-10-05T12:25:15.188Z,61.87
2022-10-05T12:27:52.462Z,62.00
2022-10-05T12:31:01.719Z,61.41
2022-10-05T12:33:56.182Z,61.24
2022-10-05T12:37:06.226Z,60.99
2022-10-05T12:39:56.203Z,61.93
2022-10-05T12:42:44.271Z,63.66
2022-10-05T12:45:37.501Z,63.59
2022-10-05T12:48:52.568Z,62.24
2022-10-05T12:52:05.686Z,61.41
2022-10-05T12:54:59.965Z,62.25
2022-10-05T12:58:32.429Z,61.52
2022-10-05T13:01:38.718Z,60.50
2022-10-05T13:04:32.470Z,60.05
2022-10-05T13:07:28.906Z,60.01
2022-10-05T13:10:13.434Z,60.16
2022-10-05T13:13:24.770Z,61.00
2022-10-05T13:16:17.227Z,60.61
2022-10-05T13:19:26.962Z,61.38
2022-10-05T13:22:34.535Z,60.82
2022-10-05T13:25:27.295Z,61.17
2022-10-05T13:28:02.214Z,61.34
2022-10-05T13:30:35.255Z,61.27
2022-10-05T13:33:27.969Z,59.87
2022-10-05T13:36:27.110Z,60.48
2022-10-05T13:39:15.744Z,60.61
2022-10-05T13:42:19.368Z,60.93
2022-10-05T13:44:59.133Z,62.16
2022-10-05T13:47:52.268Z,62.37
2022-10-05T13:50:33.476Z,61.29
2022-10-05T13:53:44.649Z,61.66
2022-10-05T13:56:26.540Z,61.13
2022-10-05T13:59:15.058Z,62.36
2022-10-05T14:02:05.789Z,62.99
2022-10-05T14:04:47.066Z,63.46
2022-10-05T14:08:01.288Z,62.73
2022-10-05T14:10:34.128Z,63.75
2022-10-05T14:13:46.475Z,64.26
2022-10-05T14:16:25.490Z,64.38
2022-10-05T14:19:06.562Z,64.35
2022-10-05T14:22:24.339Z,63.68
2022-10-05T14:25:14.005Z,63.63
2022-10-05T14:28:01.956Z,63.67
2022-10-05T14:30:35.072Z,64.09
2022-10-05T14:33:17.309Z,64.26
2022-10-05T14:35:55.962Z,63.37
2022-10-05T14:38:58.029Z,63.35
2022-10-05T14:41:36.330Z,64.42
2022-10-05T14:44:14.183Z,63.99
2022-10-05T14:47:15.593Z,63.71
2022-10-05T14:50:16.934Z,64.75
2022-10-05T14:53:09.998Z,64.84
2022-10-05T14:56:04.426Z,64.02
2022-10-05T14:59:14.367Z,64.40
2022-10-05T15:02:01.172Z,64.62
2022-10-05T15:04:44.911Z,65.06
2022-10-05T15:07:36.266Z,64.69
2022-10-05T15:10:43.417Z,65.33
2022-10-05T15:13:27.633Z,64.60
2022-10-05T15:16:33.945Z,64.81
2022-10-05T15:19:30.673Z,64.45
2022-10-05T15:22:10.921Z,64.96
2022-10-05T15:24:57.840Z,65.23
2022-10-05T15:28:11.471Z,64.70
2022-10-05T15:31:05.530Z,64.97
2022-10-05T15:34:14.756Z,65.25
2022-10-05T15:37:34.144Z,66.20
2022-10-05T15:40:33.633Z,66.25
2022-10-05T15:43:19.290Z,66.28
2022-10-05T15:46:26.491Z,66.42
2022-10-05T15:49:39.800Z,66.67
2022-10-05T15:52:36.585Z,66.94
2022-10-05T15:55:23.474Z,67.15
2022-10-05T15:58:22.948Z,67.70
2022-10-05T16:01:12.073Z,67.67
2022-10-05T16:03:54.348Z,67.75
2022-10-05T16:06:59.857Z,67.70
2022-10-05T16:09:53.807Z,68.24
2022-10-05T16:12:51.133Z,68.57
2022-10-05T16:15:42.779Z,68.60
2022-10-05T16:18:33.240Z,68.67
2022-10-05T16:21:30.017Z,69.06
2022-10-05T16:24:23.113Z,68.75
2022-10-05T16:27:04.507Z,68.72
2022-10-05T16:30:02.853Z,68.88
2022-10-05T16:32:42.922Z,69.56
2022-10-05T16:35:27.737Z,69.67
2022-10-05T16:38:09.877Z,70.00
2022-10-05T16:41:24.041Z,70.31
2022-10-05T16:44:37.054Z,70.27
2022-10-05T16:47:35.265Z,70.12
2022-10-05T16:50:49.719Z,70.18
2022-10-05T16:53:29.019Z,70.00
2022-10-05T16:56:15.460Z,70.27
2022-10-05T16:59:33.721Z,70.54
2022-10-05T17:02:47.844Z,70.61
2022-10-05T17:05:55.367Z,70.77
2022-10-05T17:08:55.109Z,70.71
2022-10-05T17:11:54.983Z,71.21
2022-10-05T17:14:33.006Z,71.37
2022-10-05T17:17:50.145Z,70.71
2022-10-05T17:20:46.484Z,70.79
2022-10-05T17:23:55.906Z,70.84
2022-10-05T17:27:03.111Z,71.26
2022-10-05T17:30:27.357Z,70.89
2022-10-05T17:33:04.658Z,71.14
2022-10-05T17:36:12.426Z,70.53
2022-10-05T17:38:50.067Z,70.88
2022-10-05T17:41:28.427Z,70.60
2022-10-05T17:44:16.358Z,70.36
2022-10-05T17:47:00.360Z,70.63
2022-10-05T17:49:39.551Z,71.14
2022-10-05T17:52:42.287Z,70.95
2022-10-05T17:55:41.578Z,71.66
2022-10-05T17:58:29.013Z,72.07
2022-10-05T18:01:01.529Z,71.85
2022-10-05T18:03:40.775Z,71.94
2022-10-05T18:06:25.540Z,72.06
2022-10-05T18:09:17.451Z,72.41
2022-10-05T18:12:18.184Z,72.15
2022-10-05T18:15:00.575Z,71.74
2022-10-05T18:17:54.028Z,72.39
2022-10-05T18:20:31.855Z,72.52
2022-10-05T18:23:06.170Z,72.59
2022-10-05T18:25:57.251Z,72.59
2022-10-05T18:29:13.940Z,72.92
2022-10-05T18:32:04.531Z,72.69
2022-10-05T18:35:02.046Z,73.03
2022-10-05T18:37:59.288Z,72.51
2022-10-05T18:40:48.508Z,72.78
2022-10-05T18:43:38.950Z,72.36
2022-10-05T18:46:35.291Z,72.81
2022-10-05T18:49:38.567Z,72.70
2022-10-05T18:52:31.491Z,72.71
2022-10-05T18:55:33.493Z,73.12
2022-10-05T18:58:28.604Z,73.37
2022-10-05T19:01:39.977Z,73.24
2022-10-05T19:04:44.162Z,73.16
2022-10-05T19:07:40.848Z,72.98
2022-10-05T19:10:45.430Z,73.21
2022-10-05T19:13:39.223Z,72.90
2022-10-05T19:16:51.191Z,72.78
2022-10-05T19:20:04.329Z,73.29
2022-10-05T19:22:48.388Z,73.54
2022-10-05T19:25:38.266Z,73.81
2022-10-05T19:28:38.906Z,73.89
2022-10-05T19:31:38.660Z,73.79
2022-10-05T19:34:26.949Z,73.47
2022-10-05T19:37:14.746Z,73.82
2022-10-05T19:40:21.216Z,73.50
2022-10-05T19:43:08.097Z,73.54
2022-10-05T19:45:54.940Z,74.21
2022-10-05T19:48:50.335Z,74.12
2022-10-05T19:51:29.495Z,74.41
2022-10-05T19:54:25.315Z,74.57
2022-10-05T19:56:58.373Z,73.73
2022-10-05T19:59:34.732Z,74.76
2022-10-05T20:02:06.772Z,73.84
2022-10-05T20:04:43.302Z,73.89
2022-10-05T20:07:23.135Z,72.78
2022-10-05T20:10:19.986Z,71.93
2022-10-05T20:13:04.291Z,71.03
2022-10-05T20:15:55.145Z,70.22
2022-10-05T20:19:03.317Z,69.70
2022-10-05T20:21:50.048Z,68.75
2022-10-05T20:24:28.132Z,67.94
2022-10-05T20:27:04.957Z,68.90
2022-10-05T20:29:47.824Z,68.90
2022-10-05T20:32:19.910Z,68.81
2022-10-05T20:34:55.600Z,69.24
2022-10-05T20:37:27.677Z,69.20
2022-10-05T20:39:59.983Z,68.77
2022-10-05T20:42:32.087Z,69.25
2022-10-05T20:45:15.622Z,68.79
2022-10-05T20:47:48.158Z,68.14
2022-10-05T20:50:22.916Z,68.03
2022-10-05T20:52:54.933Z,68.03
2022-10-05T20:55:31.457Z,68.68
2022-10-05T20:58:04.134Z,68.63
2022-10-05T21:00:55.153Z,68.96
2022-10-05T21:03:27.210Z,69.58
2022-10-05T21:05:59.299Z,69.57
2022-10-05T21:08:31.752Z,69.97
2022-10-05T21:11:13.601Z,69.96
2022-10-05T21:13:48.014Z,70.31
2022-10-05T21:16:21.059Z,70.08
2022-10-05T21:18:56.081Z,70.09
2022-10-05T21:21:28.198Z,69.67
2022-10-05T21:24:03.334Z,70.65
2022-10-05T21:26:37.037Z,70.80
2022-10-05T21:29:12.774Z,70.14
2022-10-05T21:31:45.059Z,70.06
2022-10-05T21:34:17.033Z,69.84
2022-10-05T21:36:49.003Z,70.27
2022-10-05T21:39:20.974Z,70.50
2022-10-05T21:41:52.967Z,71.10
2022-10-05T21:44:24.949Z,71.10
2022-10-05T21:46:57.051Z,70.93
2022-10-05T21:49:29.297Z,70.99
2022-10-05T21:52:02.168Z,71.16
2022-10-05T21:54:35.134Z,70.58
2022-10-05T21:57:07.133Z,70.70
2022-10-05T21:59:41.510Z,70.64
2022-10-05T22:02:13.452Z,70.58
2022-10-05T22:04:45.414Z,70.44
2022-10-05T22:07:19.692Z,70.66
2022-10-05T22:09:51.986Z,71.36
2022-10-05T22:12:26.509Z,71.48
2022-10-05T22:14:59.253Z,73.09
2022-10-05T22:17:31.924Z,75.72
2022-10-05T22:20:04.612Z,78.29
2022-10-05T22:22:36.593Z,84.59
2022-10-05T22:25:09.023Z,91.24
2022-10-05T22:27:41.217Z,97.12
2022-10-05T22:30:15.756Z,99.18
2022-10-05T22:32:47.734Z,98.82
2022-10-05T22:35:19.636Z,98.41
2022-10-05T22:37:51.632Z,98.69
2022-10-05T22:40:23.631Z,98.75
2022-10-05T22:42:56.295Z,98.76
2022-10-05T22:45:32.467Z,99.98
2022-10-05T22:48:04.942Z,99.87
2022-10-05T22:50:36.925Z,100.00
2022-10-05T22:53:08.933Z,100.00
2022-10-05T22:55:41.009Z,100.00
2022-10-05T22:58:13.080Z,100.00
2022-10-05T23:00:58.202Z,100.00
2022-10-05T23:03:32.127Z,100.00
2022-10-05T23:06:09.181Z,100.00
2022-10-05T23:08:42.387Z,99.84
2022-10-05T23:11:27.849Z,98.72
2022-10-05T23:14:00.467Z,99.38
2022-10-05T23:16:32.771Z,97.46
2022-10-05T23:19:04.771Z,95.72
2022-10-05T23:21:36.734Z,95.39
2022-10-05T23:24:08.797Z,95.62
2022-10-05T23:26:40.769Z,94.87
2022-10-05T23:29:12.775Z,94.46
2022-10-05T23:31:44.826Z,94.44
2022-10-05T23:34:16.746Z,92.03
2022-10-05T23:36:48.678Z,92.52
2022-10-05T23:39:20.691Z,92.57
2022-10-05T23:41:52.666Z,92.13
2022-10-05T23:44:24.712Z,91.56
2022-10-05T23:46:56.677Z,89.74
2022-10-05T23:49:28.882Z,88.41
2022-10-05T23:52:00.803Z,87.65
2022-10-05T23:54:32.743Z,86.23
2022-10-05T23:57:04.932Z,84.01
2022-10-05T23:59:37.667Z,85.59
